Terminal Aerodrome Forecast
Issued by NWS Lake Charles, LA

Home | Current Version | Previous Version | Text Only | Print | Product List | Glossary On
Versions: 1 2 3 4 5 6 7 8 9 10 11 12 13 14 15
216
FTUS44 KLCH 250521
TAFAEX
TAF
KAEX 250521Z 2506/2606 23007KT P6SM VCSH FEW030 BKN120
     FM251400 23004KT P6SM OVC250=

USA.gov is the U.S. government's official web portal to all federal, state and local government web resources and services.